sensor_id;sensor_type;location;lat;lon;timestamp;P1;durP1;ratioP1;P2;durP2;ratioP2
1178;SDS011;578;48.408;10.004;2022-12-18T00:01:24;52.00;;;20.00;;
1178;SDS011;578;48.408;10.004;2022-12-18T00:03:53;61.33;;;23.85;;
1178;SDS011;578;48.408;10.004;2022-12-18T00:06:21;50.30;;;19.17;;
1178;SDS011;578;48.408;10.004;2022-12-18T00:08:48;39.83;;;19.90;;
1178;SDS011;578;48.408;10.004;2022-12-18T00:11:17;40.47;;;17.92;;
1178;SDS011;578;48.408;10.004;2022-12-18T00:13:46;52.20;;;20.38;;
1178;SDS011;578;48.408;10.004;2022-12-18T00:16:14;62.97;;;21.23;;
1178;SDS011;578;48.408;10.004;2022-12-18T00:18:43;42.08;;;18.00;;
1178;SDS011;578;48.408;10.004;2022-12-18T00:21:11;46.08;;;18.90;;
1178;SDS011;578;48.408;10.004;2022-12-18T00:23:39;42.40;;;18.08;;
1178;SDS011;578;48.408;10.004;2022-12-18T00:26:07;49.25;;;18.27;;
1178;SDS011;578;48.408;10.004;2022-12-18T00:28:37;37.38;;;17.45;;
1178;SDS011;578;48.408;10.004;2022-12-18T00:31:06;55.58;;;20.70;;
1178;SDS011;578;48.408;10.004;2022-12-18T00:33:34;44.13;;;18.42;;
1178;SDS011;578;48.408;10.004;2022-12-18T00:36:02;45.05;;;17.63;;
1178;SDS011;578;48.408;10.004;2022-12-18T00:38:29;49.13;;;20.52;;
1178;SDS011;578;48.408;10.004;2022-12-18T00:40:56;49.28;;;21.65;;
1178;SDS011;578;48.408;10.004;2022-12-18T00:43:23;40.13;;;19.75;;
1178;SDS011;578;48.408;10.004;2022-12-18T00:45:49;45.67;;;17.02;;
1178;SDS011;578;48.408;10.004;2022-12-18T00:48:17;50.53;;;21.05;;
1178;SDS011;578;48.408;10.004;2022-12-18T00:50:44;51.45;;;19.65;;
1178;SDS011;578;48.408;10.004;2022-12-18T00:53:11;45.25;;;18.35;;
1178;SDS011;578;48.408;10.004;2022-12-18T00:55:38;42.63;;;19.25;;
1178;SDS011;578;48.408;10.004;2022-12-18T00:58:06;46.63;;;17.95;;
1178;SDS011;578;48.408;10.004;2022-12-18T01:00:33;51.40;;;23.08;;
1178;SDS011;578;48.408;10.004;2022-12-18T01:02:59;43.38;;;18.42;;
1178;SDS011;578;48.408;10.004;2022-12-18T01:05:28;56.47;;;23.92;;
1178;SDS011;578;48.408;10.004;2022-12-18T01:07:55;48.83;;;19.83;;
1178;SDS011;578;48.408;10.004;2022-12-18T01:10:22;59.53;;;18.75;;
1178;SDS011;578;48.408;10.004;2022-12-18T01:12:50;45.45;;;19.67;;
1178;SDS011;578;48.408;10.004;2022-12-18T01:15:17;54.40;;;21.90;;
1178;SDS011;578;48.408;10.004;2022-12-18T01:17:44;43.22;;;19.40;;
1178;SDS011;578;48.408;10.004;2022-12-18T01:20:12;64.38;;;23.30;;
1178;SDS011;578;48.408;10.004;2022-12-18T01:22:40;47.58;;;19.95;;
1178;SDS011;578;48.408;10.004;2022-12-18T01:25:07;48.75;;;22.17;;
1178;SDS011;578;48.408;10.004;2022-12-18T01:27:34;47.92;;;19.58;;
1178;SDS011;578;48.408;10.004;2022-12-18T01:30:01;63.22;;;25.75;;
1178;SDS011;578;48.408;10.004;2022-12-18T01:32:29;52.05;;;24.33;;
1178;SDS011;578;48.408;10.004;2022-12-18T01:34:56;51.65;;;19.92;;
1178;SDS011;578;48.408;10.004;2022-12-18T01:37:23;58.95;;;22.27;;
1178;SDS011;578;48.408;10.004;2022-12-18T01:39:51;56.55;;;20.05;;
1178;SDS011;578;48.408;10.004;2022-12-18T01:42:19;61.53;;;22.33;;
1178;SDS011;578;48.408;10.004;2022-12-18T01:44:57;57.33;;;24.98;;
1178;SDS011;578;48.408;10.004;2022-12-18T01:47:27;58.88;;;22.00;;
1178;SDS011;578;48.408;10.004;2022-12-18T01:49:57;60.53;;;21.80;;
1178;SDS011;578;48.408;10.004;2022-12-18T01:52:28;51.47;;;22.70;;
1178;SDS011;578;48.408;10.004;2022-12-18T01:54:58;54.33;;;21.92;;
1178;SDS011;578;48.408;10.004;2022-12-18T01:57:26;61.95;;;23.63;;
1178;SDS011;578;48.408;10.004;2022-12-18T01:59:55;66.50;;;24.23;;
1178;SDS011;578;48.408;10.004;2022-12-18T02:02:26;68.07;;;25.55;;
1178;SDS011;578;48.408;10.004;2022-12-18T02:04:53;54.83;;;21.30;;
1178;SDS011;578;48.408;10.004;2022-12-18T02:07:22;61.42;;;22.60;;
1178;SDS011;578;48.408;10.004;2022-12-18T02:09:56;53.20;;;20.30;;
1178;SDS011;578;48.408;10.004;2022-12-18T02:12:30;51.15;;;22.50;;
1178;SDS011;578;48.408;10.004;2022-12-18T02:15:05;54.95;;;21.50;;
1178;SDS011;578;48.408;10.004;2022-12-18T02:17:38;59.85;;;22.73;;
1178;SDS011;578;48.408;10.004;2022-12-18T02:20:12;52.78;;;21.48;;
1178;SDS011;578;48.408;10.004;2022-12-18T02:22:44;60.67;;;20.23;;
1178;SDS011;578;48.408;10.004;2022-12-18T02:25:32;45.90;;;20.17;;
1178;SDS011;578;48.408;10.004;2022-12-18T02:28:22;58.65;;;20.23;;
1178;SDS011;578;48.408;10.004;2022-12-18T02:30:54;53.78;;;19.60;;
1178;SDS011;578;48.408;10.004;2022-12-18T02:33:24;40.42;;;20.33;;
1178;SDS011;578;48.408;10.004;2022-12-18T02:35:53;61.70;;;22.55;;
1178;SDS011;578;48.408;10.004;2022-12-18T02:38:22;65.13;;;20.63;;
1178;SDS011;578;48.408;10.004;2022-12-18T02:40:51;58.53;;;19.83;;
1178;SDS011;578;48.408;10.004;2022-12-18T02:43:22;44.83;;;18.17;;
1178;SDS011;578;48.408;10.004;2022-12-18T02:45:50;49.85;;;20.23;;
1178;SDS011;578;48.408;10.004;2022-12-18T02:48:21;55.20;;;23.55;;
1178;SDS011;578;48.408;10.004;2022-12-18T02:50:51;42.25;;;20.17;;
1178;SDS011;578;48.408;10.004;2022-12-18T02:53:26;38.78;;;17.70;;
1178;SDS011;578;48.408;10.004;2022-12-18T02:56:01;48.20;;;20.15;;
1178;SDS011;578;48.408;10.004;2022-12-18T02:58:37;50.95;;;20.08;;
1178;SDS011;578;48.408;10.004;2022-12-18T03:01:11;46.78;;;22.70;;
1178;SDS011;578;48.408;10.004;2022-12-18T03:03:43;42.05;;;21.20;;
1178;SDS011;578;48.408;10.004;2022-12-18T03:06:17;55.63;;;21.65;;
1178;SDS011;578;48.408;10.004;2022-12-18T03:08:51;57.45;;;21.50;;
1178;SDS011;578;48.408;10.004;2022-12-18T03:11:22;51.28;;;21.30;;
1178;SDS011;578;48.408;10.004;2022-12-18T03:14:05;46.65;;;22.67;;
1178;SDS011;578;48.408;10.004;2022-12-18T03:16:33;46.90;;;17.63;;
1178;SDS011;578;48.408;10.004;2022-12-18T03:19:02;45.10;;;19.42;;
1178;SDS011;578;48.408;10.004;2022-12-18T03:21:33;52.83;;;21.52;;
1178;SDS011;578;48.408;10.004;2022-12-18T03:24:05;48.15;;;19.63;;
1178;SDS011;578;48.408;10.004;2022-12-18T03:26:33;46.55;;;20.48;;
1178;SDS011;578;48.408;10.004;2022-12-18T03:29:03;58.80;;;24.55;;
1178;SDS011;578;48.408;10.004;2022-12-18T03:31:34;50.08;;;19.58;;
1178;SDS011;578;48.408;10.004;2022-12-18T03:34:04;61.08;;;23.45;;
1178;SDS011;578;48.408;10.004;2022-12-18T03:36:35;50.15;;;23.95;;
1178;SDS011;578;48.408;10.004;2022-12-18T03:39:02;56.47;;;22.73;;
1178;SDS011;578;48.408;10.004;2022-12-18T03:41:29;49.65;;;24.83;;
1178;SDS011;578;48.408;10.004;2022-12-18T03:44:00;65.97;;;23.52;;
1178;SDS011;578;48.408;10.004;2022-12-18T03:46:38;57.67;;;22.67;;
1178;SDS011;578;48.408;10.004;2022-12-18T03:49:11;57.05;;;23.15;;
1178;SDS011;578;48.408;10.004;2022-12-18T03:51:45;58.85;;;21.17;;
1178;SDS011;578;48.408;10.004;2022-12-18T03:54:17;45.72;;;22.55;;
1178;SDS011;578;48.408;10.004;2022-12-18T03:56:46;63.92;;;24.33;;
1178;SDS011;578;48.408;10.004;2022-12-18T03:59:17;58.60;;;22.77;;
1178;SDS011;578;48.408;10.004;2022-12-18T04:01:48;57.90;;;22.40;;
1178;SDS011;578;48.408;10.004;2022-12-18T04:04:17;52.70;;;23.00;;
1178;SDS011;578;48.408;10.004;2022-12-18T04:06:46;56.65;;;22.42;;
1178;SDS011;578;48.408;10.004;2022-12-18T04:09:15;71.80;;;25.90;;
1178;SDS011;578;48.408;10.004;2022-12-18T04:11:42;55.03;;;19.40;;
1178;SDS011;578;48.408;10.004;2022-12-18T04:14:09;46.50;;;21.13;;
1178;SDS011;578;48.408;10.004;2022-12-18T04:16:37;61.60;;;26.70;;
1178;SDS011;578;48.408;10.004;2022-12-18T04:19:05;83.43;;;27.02;;
1178;SDS011;578;48.408;10.004;2022-12-18T04:21:32;57.22;;;23.75;;
1178;SDS011;578;48.408;10.004;2022-12-18T04:23:59;60.00;;;23.02;;
1178;SDS011;578;48.408;10.004;2022-12-18T04:26:25;50.33;;;22.55;;
1178;SDS011;578;48.408;10.004;2022-12-18T04:28:52;50.88;;;22.05;;
1178;SDS011;578;48.408;10.004;2022-12-18T04:31:19;52.60;;;23.13;;
1178;SDS011;578;48.408;10.004;2022-12-18T04:33:46;59.67;;;21.00;;
1178;SDS011;578;48.408;10.004;2022-12-18T04:36:14;49.17;;;21.08;;
1178;SDS011;578;48.408;10.004;2022-12-18T04:38:40;69.15;;;26.67;;
1178;SDS011;578;48.408;10.004;2022-12-18T04:41:07;68.40;;;24.15;;
1178;SDS011;578;48.408;10.004;2022-12-18T04:43:34;56.88;;;22.23;;
1178;SDS011;578;48.408;10.004;2022-12-18T04:46:01;57.38;;;21.08;;
1178;SDS011;578;48.408;10.004;2022-12-18T04:48:29;63.90;;;22.25;;
1178;SDS011;578;48.408;10.004;2022-12-18T04:50:55;58.38;;;24.65;;
1178;SDS011;578;48.408;10.004;2022-12-18T04:53:23;62.40;;;23.63;;
1178;SDS011;578;48.408;10.004;2022-12-18T04:55:50;49.60;;;23.55;;
1178;SDS011;578;48.408;10.004;2022-12-18T04:58:27;72.07;;;30.40;;
1178;SDS011;578;48.408;10.004;2022-12-18T05:00:54;58.47;;;24.67;;
1178;SDS011;578;48.408;10.004;2022-12-18T05:03:21;61.65;;;23.50;;
1178;SDS011;578;48.408;10.004;2022-12-18T05:05:48;51.97;;;21.95;;
1178;SDS011;578;48.408;10.004;2022-12-18T05:08:16;56.92;;;22.02;;
1178;SDS011;578;48.408;10.004;2022-12-18T05:10:44;50.20;;;20.98;;
1178;SDS011;578;48.408;10.004;2022-12-18T05:13:11;62.42;;;22.00;;
1178;SDS011;578;48.408;10.004;2022-12-18T05:15:37;60.70;;;23.67;;
1178;SDS011;578;48.408;10.004;2022-12-18T05:18:04;53.85;;;26.85;;
1178;SDS011;578;48.408;10.004;2022-12-18T05:20:31;65.60;;;25.95;;
1178;SDS011;578;48.408;10.004;2022-12-18T05:22:58;67.88;;;23.65;;
1178;SDS011;578;48.408;10.004;2022-12-18T05:25:25;70.78;;;24.00;;
1178;SDS011;578;48.408;10.004;2022-12-18T05:27:53;50.33;;;23.67;;
1178;SDS011;578;48.408;10.004;2022-12-18T05:30:20;70.57;;;23.90;;
1178;SDS011;578;48.408;10.004;2022-12-18T05:32:47;54.28;;;22.45;;
1178;SDS011;578;48.408;10.004;2022-12-18T05:35:14;69.63;;;25.73;;
1178;SDS011;578;48.408;10.004;2022-12-18T05:37:41;59.60;;;23.77;;
1178;SDS011;578;48.408;10.004;2022-12-18T05:40:08;60.08;;;25.70;;
1178;SDS011;578;48.408;10.004;2022-12-18T05:42:35;59.30;;;24.95;;
1178;SDS011;578;48.408;10.004;2022-12-18T05:45:04;72.72;;;21.42;;
1178;SDS011;578;48.408;10.004;2022-12-18T05:47:32;65.65;;;24.35;;
1178;SDS011;578;48.408;10.004;2022-12-18T05:49:58;63.40;;;22.10;;
1178;SDS011;578;48.408;10.004;2022-12-18T05:52:25;65.80;;;22.63;;
1178;SDS011;578;48.408;10.004;2022-12-18T05:54:52;64.47;;;23.75;;
1178;SDS011;578;48.408;10.004;2022-12-18T05:57:19;61.45;;;23.08;;
1178;SDS011;578;48.408;10.004;2022-12-18T05:59:45;67.57;;;24.15;;
1178;SDS011;578;48.408;10.004;2022-12-18T06:02:14;77.63;;;25.33;;
1178;SDS011;578;48.408;10.004;2022-12-18T06:04:40;82.13;;;23.73;;
1178;SDS011;578;48.408;10.004;2022-12-18T06:07:07;79.47;;;26.05;;
1178;SDS011;578;48.408;10.004;2022-12-18T06:09:34;72.43;;;24.83;;
1178;SDS011;578;48.408;10.004;2022-12-18T06:12:00;78.47;;;24.92;;
1178;SDS011;578;48.408;10.004;2022-12-18T06:14:27;50.33;;;23.27;;
1178;SDS011;578;48.408;10.004;2022-12-18T06:16:54;77.25;;;26.80;;
1178;SDS011;578;48.408;10.004;2022-12-18T06:19:22;63.17;;;25.42;;
1178;SDS011;578;48.408;10.004;2022-12-18T06:21:49;57.22;;;24.15;;
1178;SDS011;578;48.408;10.004;2022-12-18T06:24:16;64.80;;;23.60;;
1178;SDS011;578;48.408;10.004;2022-12-18T06:26:43;66.55;;;25.30;;
1178;SDS011;578;48.408;10.004;2022-12-18T06:29:09;62.53;;;24.10;;
1178;SDS011;578;48.408;10.004;2022-12-18T06:31:36;62.40;;;24.73;;
1178;SDS011;578;48.408;10.004;2022-12-18T06:34:03;66.63;;;23.30;;
1178;SDS011;578;48.408;10.004;2022-12-18T06:36:32;61.53;;;22.35;;
1178;SDS011;578;48.408;10.004;2022-12-18T06:38:58;58.47;;;22.58;;
1178;SDS011;578;48.408;10.004;2022-12-18T06:41:25;67.07;;;23.25;;
1178;SDS011;578;48.408;10.004;2022-12-18T06:43:52;65.03;;;24.13;;
1178;SDS011;578;48.408;10.004;2022-12-18T06:46:19;71.88;;;26.85;;
1178;SDS011;578;48.408;10.004;2022-12-18T06:48:46;62.58;;;23.70;;
1178;SDS011;578;48.408;10.004;2022-12-18T06:51:15;49.72;;;24.35;;
1178;SDS011;578;48.408;10.004;2022-12-18T06:53:44;64.78;;;27.65;;
1178;SDS011;578;48.408;10.004;2022-12-18T06:56:11;75.25;;;27.58;;
1178;SDS011;578;48.408;10.004;2022-12-18T06:58:38;59.58;;;23.25;;
1178;SDS011;578;48.408;10.004;2022-12-18T07:01:05;67.75;;;23.65;;
1178;SDS011;578;48.408;10.004;2022-12-18T07:03:34;54.35;;;24.77;;
1178;SDS011;578;48.408;10.004;2022-12-18T07:06:01;53.22;;;24.33;;
1178;SDS011;578;48.408;10.004;2022-12-18T07:08:28;44.17;;;23.05;;
1178;SDS011;578;48.408;10.004;2022-12-18T07:10:56;53.17;;;21.48;;
1178;SDS011;578;48.408;10.004;2022-12-18T07:13:23;54.67;;;21.55;;
1178;SDS011;578;48.408;10.004;2022-12-18T07:15:50;50.22;;;20.67;;
1178;SDS011;578;48.408;10.004;2022-12-18T07:18:17;67.72;;;25.42;;
1178;SDS011;578;48.408;10.004;2022-12-18T07:20:44;74.63;;;28.48;;
1178;SDS011;578;48.408;10.004;2022-12-18T07:23:11;55.65;;;25.13;;
1178;SDS011;578;48.408;10.004;2022-12-18T07:25:38;75.47;;;26.40;;
1178;SDS011;578;48.408;10.004;2022-12-18T07:28:06;53.97;;;21.67;;
1178;SDS011;578;48.408;10.004;2022-12-18T07:30:32;63.70;;;24.63;;
1178;SDS011;578;48.408;10.004;2022-12-18T07:32:59;67.43;;;24.80;;
1178;SDS011;578;48.408;10.004;2022-12-18T07:35:26;57.63;;;23.30;;
1178;SDS011;578;48.408;10.004;2022-12-18T07:37:53;80.68;;;25.27;;
1178;SDS011;578;48.408;10.004;2022-12-18T07:40:19;63.88;;;27.75;;
1178;SDS011;578;48.408;10.004;2022-12-18T07:42:46;60.42;;;24.42;;
1178;SDS011;578;48.408;10.004;2022-12-18T07:45:14;65.07;;;21.42;;
1178;SDS011;578;48.408;10.004;2022-12-18T07:47:41;65.88;;;25.33;;
1178;SDS011;578;48.408;10.004;2022-12-18T07:50:08;81.78;;;27.27;;
1178;SDS011;578;48.408;10.004;2022-12-18T07:52:35;64.05;;;22.52;;
1178;SDS011;578;48.408;10.004;2022-12-18T07:55:02;62.40;;;23.25;;
1178;SDS011;578;48.408;10.004;2022-12-18T07:57:29;64.68;;;25.98;;
1178;SDS011;578;48.408;10.004;2022-12-18T07:59:56;63.97;;;25.67;;
1178;SDS011;578;48.408;10.004;2022-12-18T08:02:24;71.25;;;24.20;;
1178;SDS011;578;48.408;10.004;2022-12-18T08:04:50;60.45;;;25.38;;
1178;SDS011;578;48.408;10.004;2022-12-18T08:07:17;58.35;;;25.42;;
1178;SDS011;578;48.408;10.004;2022-12-18T08:09:44;59.80;;;25.63;;
1178;SDS011;578;48.408;10.004;2022-12-18T08:12:11;71.43;;;22.67;;
1178;SDS011;578;48.408;10.004;2022-12-18T08:14:37;67.20;;;22.95;;
1178;SDS011;578;48.408;10.004;2022-12-18T08:17:04;57.90;;;24.13;;
1178;SDS011;578;48.408;10.004;2022-12-18T08:19:32;69.00;;;24.73;;
1178;SDS011;578;48.408;10.004;2022-12-18T08:21:59;62.05;;;23.00;;
1178;SDS011;578;48.408;10.004;2022-12-18T08:24:26;56.95;;;23.60;;
1178;SDS011;578;48.408;10.004;2022-12-18T08:26:53;53.30;;;24.25;;
1178;SDS011;578;48.408;10.004;2022-12-18T08:29:19;60.28;;;23.40;;
1178;SDS011;578;48.408;10.004;2022-12-18T08:31:46;58.92;;;22.58;;
1178;SDS011;578;48.408;10.004;2022-12-18T08:34:13;51.67;;;21.95;;
1178;SDS011;578;48.408;10.004;2022-12-18T08:36:41;53.30;;;24.13;;
1178;SDS011;578;48.408;10.004;2022-12-18T08:39:08;55.00;;;22.15;;
1178;SDS011;578;48.408;10.004;2022-12-18T08:41:34;73.28;;;23.73;;
1178;SDS011;578;48.408;10.004;2022-12-18T08:44:01;49.55;;;20.33;;
1178;SDS011;578;48.408;10.004;2022-12-18T08:46:46;61.53;;;22.13;;
1178;SDS011;578;48.408;10.004;2022-12-18T08:49:12;59.47;;;22.40;;
1178;SDS011;578;48.408;10.004;2022-12-18T08:51:39;56.67;;;22.67;;
1178;SDS011;578;48.408;10.004;2022-12-18T08:54:08;54.33;;;21.90;;
1178;SDS011;578;48.408;10.004;2022-12-18T08:56:37;46.58;;;21.02;;
1178;SDS011;578;48.408;10.004;2022-12-18T08:59:04;52.70;;;21.52;;
1178;SDS011;578;48.408;10.004;2022-12-18T09:01:31;46.20;;;19.85;;
1178;SDS011;578;48.408;10.004;2022-12-18T09:03:58;51.65;;;19.73;;
1178;SDS011;578;48.408;10.004;2022-12-18T09:06:25;57.95;;;20.30;;
1178;SDS011;578;48.408;10.004;2022-12-18T09:08:53;59.05;;;21.02;;
1178;SDS011;578;48.408;10.004;2022-12-18T09:11:21;51.33;;;22.48;;
1178;SDS011;578;48.408;10.004;2022-12-18T09:13:49;43.85;;;19.40;;
1178;SDS011;578;48.408;10.004;2022-12-18T09:16:16;48.13;;;20.60;;
1178;SDS011;578;48.408;10.004;2022-12-18T09:18:44;53.10;;;19.55;;
1178;SDS011;578;48.408;10.004;2022-12-18T09:21:11;43.55;;;18.27;;
1178;SDS011;578;48.408;10.004;2022-12-18T09:23:40;53.10;;;19.75;;
1178;SDS011;578;48.408;10.004;2022-12-18T09:26:08;46.10;;;20.63;;
1178;SDS011;578;48.408;10.004;2022-12-18T09:28:35;46.97;;;19.10;;
1178;SDS011;578;48.408;10.004;2022-12-18T09:31:05;43.85;;;19.85;;
1178;SDS011;578;48.408;10.004;2022-12-18T09:33:33;42.03;;;19.95;;
1178;SDS011;578;48.408;10.004;2022-12-18T09:36:01;45.05;;;17.35;;
1178;SDS011;578;48.408;10.004;2022-12-18T09:38:29;40.10;;;17.25;;
1178;SDS011;578;48.408;10.004;2022-12-18T09:40:56;40.83;;;19.83;;
1178;SDS011;578;48.408;10.004;2022-12-18T09:43:28;34.83;;;15.15;;
1178;SDS011;578;48.408;10.004;2022-12-18T09:46:01;50.45;;;18.27;;
1178;SDS011;578;48.408;10.004;2022-12-18T09:48:34;43.55;;;17.70;;
1178;SDS011;578;48.408;10.004;2022-12-18T09:51:05;37.80;;;16.63;;
1178;SDS011;578;48.408;10.004;2022-12-18T09:53:38;37.08;;;16.23;;
1178;SDS011;578;48.408;10.004;2022-12-18T09:56:10;45.03;;;18.63;;
1178;SDS011;578;48.408;10.004;2022-12-18T09:58:43;52.95;;;18.67;;
1178;SDS011;578;48.408;10.004;2022-12-18T10:01:15;49.60;;;18.50;;
1178;SDS011;578;48.408;10.004;2022-12-18T10:03:47;41.30;;;18.63;;
1178;SDS011;578;48.408;10.004;2022-12-18T10:06:15;32.72;;;16.85;;
1178;SDS011;578;48.408;10.004;2022-12-18T10:08:49;34.45;;;19.50;;
1178;SDS011;578;48.408;10.004;2022-12-18T10:11:22;35.33;;;16.67;;
1178;SDS011;578;48.408;10.004;2022-12-18T10:14:03;53.60;;;20.27;;
1178;SDS011;578;48.408;10.004;2022-12-18T10:16:37;38.80;;;14.98;;
1178;SDS011;578;48.408;10.004;2022-12-18T10:19:12;36.80;;;17.98;;
1178;SDS011;578;48.408;10.004;2022-12-18T10:21:50;39.33;;;17.88;;
1178;SDS011;578;48.408;10.004;2022-12-18T10:24:24;36.28;;;15.43;;
1178;SDS011;578;48.408;10.004;2022-12-18T10:26:59;48.67;;;18.70;;
1178;SDS011;578;48.408;10.004;2022-12-18T10:29:38;34.08;;;16.73;;
1178;SDS011;578;48.408;10.004;2022-12-18T10:32:05;34.80;;;16.20;;
1178;SDS011;578;48.408;10.004;2022-12-18T10:34:33;37.97;;;17.23;;
1178;SDS011;578;48.408;10.004;2022-12-18T10:37:00;36.45;;;18.30;;
1178;SDS011;578;48.408;10.004;2022-12-18T10:39:30;47.75;;;17.45;;
1178;SDS011;578;48.408;10.004;2022-12-18T10:42:04;39.05;;;15.95;;
1178;SDS011;578;48.408;10.004;2022-12-18T10:44:39;35.40;;;14.77;;
1178;SDS011;578;48.408;10.004;2022-12-18T10:47:09;32.78;;;15.18;;
1178;SDS011;578;48.408;10.004;2022-12-18T10:49:41;38.88;;;17.92;;
1178;SDS011;578;48.408;10.004;2022-12-18T10:52:14;31.90;;;16.85;;
1178;SDS011;578;48.408;10.004;2022-12-18T10:54:47;32.97;;;14.88;;
1178;SDS011;578;48.408;10.004;2022-12-18T10:57:17;40.00;;;16.88;;
1178;SDS011;578;48.408;10.004;2022-12-18T10:59:57;36.85;;;15.35;;
1178;SDS011;578;48.408;10.004;2022-12-18T11:02:26;38.85;;;18.38;;
1178;SDS011;578;48.408;10.004;2022-12-18T11:04:59;34.20;;;15.80;;
1178;SDS011;578;48.408;10.004;2022-12-18T11:07:26;30.77;;;15.65;;
1178;SDS011;578;48.408;10.004;2022-12-18T11:10:15;41.30;;;16.38;;
1178;SDS011;578;48.408;10.004;2022-12-18T11:12:43;40.08;;;18.23;;
1178;SDS011;578;48.408;10.004;2022-12-18T11:15:15;36.17;;;17.55;;
1178;SDS011;578;48.408;10.004;2022-12-18T11:17:46;35.65;;;17.33;;
1178;SDS011;578;48.408;10.004;2022-12-18T11:20:23;37.83;;;15.75;;
1178;SDS011;578;48.408;10.004;2022-12-18T11:22:58;32.28;;;14.63;;
1178;SDS011;578;48.408;10.004;2022-12-18T11:25:26;37.55;;;15.20;;
1178;SDS011;578;48.408;10.004;2022-12-18T11:27:54;35.83;;;15.88;;
1178;SDS011;578;48.408;10.004;2022-12-18T11:30:26;32.58;;;16.42;;
1178;SDS011;578;48.408;10.004;2022-12-18T11:32:55;42.55;;;15.63;;
1178;SDS011;578;48.408;10.004;2022-12-18T11:35:35;32.83;;;15.70;;
1178;SDS011;578;48.408;10.004;2022-12-18T11:38:06;34.03;;;15.43;;
1178;SDS011;578;48.408;10.004;2022-12-18T11:40:40;26.10;;;14.38;;
1178;SDS011;578;48.408;10.004;2022-12-18T11:43:10;34.97;;;15.18;;
1178;SDS011;578;48.408;10.004;2022-12-18T11:45:43;42.55;;;16.33;;
1178;SDS011;578;48.408;10.004;2022-12-18T11:48:17;37.92;;;15.20;;
1178;SDS011;578;48.408;10.004;2022-12-18T11:50:48;33.40;;;17.35;;
1178;SDS011;578;48.408;10.004;2022-12-18T11:53:17;33.00;;;16.52;;
1178;SDS011;578;48.408;10.004;2022-12-18T11:55:50;30.80;;;16.02;;
1178;SDS011;578;48.408;10.004;2022-12-18T11:58:27;34.08;;;14.75;;
1178;SDS011;578;48.408;10.004;2022-12-18T12:01:06;32.80;;;15.02;;
1178;SDS011;578;48.408;10.004;2022-12-18T12:06:41;32.65;;;14.50;;
1178;SDS011;578;48.408;10.004;2022-12-18T12:09:18;29.85;;;15.25;;
1178;SDS011;578;48.408;10.004;2022-12-18T12:11:53;35.85;;;16.30;;
1178;SDS011;578;48.408;10.004;2022-12-18T12:14:30;29.35;;;14.13;;
1178;SDS011;578;48.408;10.004;2022-12-18T12:17:11;32.30;;;14.60;;
1178;SDS011;578;48.408;10.004;2022-12-18T12:19:51;31.52;;;15.50;;
1178;SDS011;578;48.408;10.004;2022-12-18T12:22:23;36.35;;;15.30;;
1178;SDS011;578;48.408;10.004;2022-12-18T12:25:00;28.73;;;13.30;;
1178;SDS011;578;48.408;10.004;2022-12-18T12:27:41;28.08;;;14.35;;
1178;SDS011;578;48.408;10.004;2022-12-18T12:30:18;30.95;;;13.80;;
1178;SDS011;578;48.408;10.004;2022-12-18T12:32:55;29.52;;;13.82;;
1178;SDS011;578;48.408;10.004;2022-12-18T12:35:33;28.92;;;13.75;;
1178;SDS011;578;48.408;10.004;2022-12-18T12:38:09;24.42;;;12.32;;
1178;SDS011;578;48.408;10.004;2022-12-18T12:40:41;36.97;;;14.25;;
1178;SDS011;578;48.408;10.004;2022-12-18T12:43:21;28.45;;;13.82;;
1178;SDS011;578;48.408;10.004;2022-12-18T12:45:53;29.45;;;12.38;;
1178;SDS011;578;48.408;10.004;2022-12-18T12:48:27;24.13;;;12.88;;
1178;SDS011;578;48.408;10.004;2022-12-18T12:51:15;26.70;;;11.55;;
1178;SDS011;578;48.408;10.004;2022-12-18T12:53:44;33.05;;;14.25;;
1178;SDS011;578;48.408;10.004;2022-12-18T12:56:12;27.50;;;14.43;;
1178;SDS011;578;48.408;10.004;2022-12-18T12:58:44;24.80;;;11.70;;
1178;SDS011;578;48.408;10.004;2022-12-18T13:01:17;31.52;;;14.15;;
1178;SDS011;578;48.408;10.004;2022-12-18T13:03:56;23.42;;;12.25;;
1178;SDS011;578;48.408;10.004;2022-12-18T13:06:33;26.90;;;12.52;;
1178;SDS011;578;48.408;10.004;2022-12-18T13:09:06;26.88;;;13.63;;
1178;SDS011;578;48.408;10.004;2022-12-18T13:11:36;20.75;;;11.88;;
1178;SDS011;578;48.408;10.004;2022-12-18T13:14:23;31.40;;;11.43;;
1178;SDS011;578;48.408;10.004;2022-12-18T13:22:48;37.47;;;16.52;;
1178;SDS011;578;48.408;10.004;2022-12-18T13:25:32;31.38;;;15.30;;
1178;SDS011;578;48.408;10.004;2022-12-18T13:28:05;32.65;;;13.75;;
1178;SDS011;578;48.408;10.004;2022-12-18T13:30:45;24.10;;;13.68;;
1178;SDS011;578;48.408;10.004;2022-12-18T13:36:16;32.55;;;15.80;;
1178;SDS011;578;48.408;10.004;2022-12-18T13:39:10;33.13;;;15.80;;
1178;SDS011;578;48.408;10.004;2022-12-18T13:41:49;27.15;;;12.30;;
1178;SDS011;578;48.408;10.004;2022-12-18T13:44:22;29.20;;;14.57;;
1178;SDS011;578;48.408;10.004;2022-12-18T13:46:51;36.63;;;15.43;;
1178;SDS011;578;48.408;10.004;2022-12-18T13:49:20;32.88;;;13.73;;
1178;SDS011;578;48.408;10.004;2022-12-18T13:51:51;28.48;;;14.75;;
1178;SDS011;578;48.408;10.004;2022-12-18T13:54:21;29.40;;;14.68;;
1178;SDS011;578;48.408;10.004;2022-12-18T13:56:54;22.95;;;11.10;;
1178;SDS011;578;48.408;10.004;2022-12-18T13:59:23;25.35;;;12.80;;
1178;SDS011;578;48.408;10.004;2022-12-18T14:01:52;32.15;;;13.02;;
1178;SDS011;578;48.408;10.004;2022-12-18T14:04:21;26.92;;;14.48;;
1178;SDS011;578;48.408;10.004;2022-12-18T14:06:54;25.42;;;12.43;;
1178;SDS011;578;48.408;10.004;2022-12-18T14:09:25;34.25;;;13.40;;
1178;SDS011;578;48.408;10.004;2022-12-18T14:11:54;36.15;;;15.73;;
1178;SDS011;578;48.408;10.004;2022-12-18T14:14:44;36.42;;;15.10;;
1178;SDS011;578;48.408;10.004;2022-12-18T14:17:12;30.95;;;15.85;;
1178;SDS011;578;48.408;10.004;2022-12-18T14:19:41;30.85;;;14.55;;
1178;SDS011;578;48.408;10.004;2022-12-18T14:22:18;30.52;;;15.02;;
1178;SDS011;578;48.408;10.004;2022-12-18T14:24:46;28.77;;;12.05;;
1178;SDS011;578;48.408;10.004;2022-12-18T14:27:30;31.00;;;14.43;;
1178;SDS011;578;48.408;10.004;2022-12-18T14:29:57;29.85;;;13.77;;
1178;SDS011;578;48.408;10.004;2022-12-18T14:32:24;33.55;;;13.50;;
1178;SDS011;578;48.408;10.004;2022-12-18T14:34:51;32.40;;;14.63;;
1178;SDS011;578;48.408;10.004;2022-12-18T14:37:22;34.22;;;16.92;;
1178;SDS011;578;48.408;10.004;2022-12-18T14:39:56;28.55;;;12.75;;
1178;SDS011;578;48.408;10.004;2022-12-18T14:42:24;30.75;;;13.32;;
1178;SDS011;578;48.408;10.004;2022-12-18T14:47:54;36.60;;;17.27;;
1178;SDS011;578;48.408;10.004;2022-12-18T14:50:20;36.60;;;12.77;;
1178;SDS011;578;48.408;10.004;2022-12-18T14:52:48;32.72;;;15.32;;
1178;SDS011;578;48.408;10.004;2022-12-18T14:55:16;43.30;;;16.27;;
1178;SDS011;578;48.408;10.004;2022-12-18T14:57:43;31.45;;;14.35;;
1178;SDS011;578;48.408;10.004;2022-12-18T15:00:14;31.15;;;13.93;;
1178;SDS011;578;48.408;10.004;2022-12-18T15:02:44;22.42;;;11.40;;
1178;SDS011;578;48.408;10.004;2022-12-18T15:05:16;26.80;;;12.55;;
1178;SDS011;578;48.408;10.004;2022-12-18T15:07:46;33.88;;;13.63;;
1178;SDS011;578;48.408;10.004;2022-12-18T15:10:16;30.80;;;15.13;;
1178;SDS011;578;48.408;10.004;2022-12-18T15:12:44;30.73;;;13.90;;
1178;SDS011;578;48.408;10.004;2022-12-18T15:18:11;33.13;;;15.02;;
1178;SDS011;578;48.408;10.004;2022-12-18T15:20:42;40.45;;;15.68;;
1178;SDS011;578;48.408;10.004;2022-12-18T15:23:13;29.92;;;14.32;;